Station info - map view · info · telemetry · weather · raw · status · beacons · messages · bulletins · browse · moving · my account
Callsign, ship name or locator: Clear       
It is possible to search using wildcards (*?) after a prefix. Example: OH*
APRS station MEEKO - show graphs
Map loading...
Comment: KD0KZK 711ED
Mic-E message: En route
Location: 38°49.35' N 106°07.61' W - locator DM68WT47SJ - show map - static map
1.4 miles South bearing 170° from Buena Vista, Chaffee County, Colorado, United States [?]
21.0 miles North bearing 341° from Salida, Chaffee County, Colorado, United States
70.2 miles West bearing 270° from Colorado Springs, El Paso County, Colorado, United States
87.9 miles Southwest bearing 224° from Denver, Denver County, Colorado, United States
Last position: 2018-12-04 12:08:36 EST (14d 4h30m ago)
2018-12-04 10:08:36 MST local time at Buena Vista, United States [?]
Altitude: 7976 ft
Course: 231°
Speed: 6 MPH
Last path: MEEKO>SX4YSU via WIDE1-1,WIDE2-1,qAR,METHOD (good)
Positions stored: 15035
Stations near current position of MEEKO - show more
callsign distance last heard - EST      callsign distance last heard - EST
WZ0N-150.4 miles 79°2018-12-17 10:01:14 KAEJ0.7 miles 149°2018-11-26 12:37:07
K9CBX-62.2 miles 342°2018-12-17 13:22:58 K7BM5.6 miles 241°2018-11-26 12:36:59
KD0MRC-66.5 miles 321°2018-12-06 16:41:32 KD0MRC-156.6 miles 321°2018-12-18 16:04:15
KD0KNM-77.4 miles 176°2018-12-16 15:49:26 K0NR-110.0 miles 59°2018-12-18 16:35:31
N0MQJ13.1 miles 70°2018-12-18 16:31:45 QUAIL19.0 miles 316°2018-12-18 16:29:44
147.240CO19.0 miles 316°2018-12-18 16:27:04 CW399319.6 miles 190°2018-12-18 16:38:05
TYLRPK21.1 miles 275°2018-12-18 16:38:42 N0EB21.4 miles 162°2018-12-18 16:12:04
N0EB-821.4 miles 162°2018-11-18 19:22:20 N0EB-721.4 miles 162°2018-12-18 14:50:43
N4EZZ-121.7 miles 160°2018-12-18 16:20:31 W1CAT21.9 miles 160°2018-12-16 14:56:07
EW164425.2 miles 235°2018-12-18 16:30:55 K0CHP B25.4 miles 42°2018-11-20 21:23:17
Stations which heard MEEKO directly on radio –
callsign pkts first heard - EST last heard longest (tx => rx) longest at - EST
PORTER 1 2018-12-04 10:14:50 2018-12-04 10:14:50 DM45XX > DM54AE 123.5 miles 177° 2018-12-04 10:14:50
UBUTTE 11 2018-12-04 10:20:47 2018-12-04 11:07:27 DM56BE > DM58QN 178.9 miles 21° 2018-12-04 10:20:47
SUNLGT 3 2018-12-04 11:08:27 2018-12-04 11:18:23 DM57UP > DM69HK 131.5 miles 22° 2018-12-04 11:08:27
K7NRA 1 2018-12-04 09:25:19 2018-12-04 09:25:19 DM44BP > DM44BT 13.3 miles 349° 2018-12-04 09:25:19
WA6LSE-4 6 2018-12-04 09:19:02 2018-12-04 09:27:10 DM44CP > DM44BN 8.0 miles 194° 2018-12-04 09:27:10
ABAJO 12 2018-12-04 10:15:48 2018-12-04 11:04:29 DM46XA > DM57GU 129.4 miles 14° 2018-12-04 10:15:48
K7YI-4 3 2018-12-04 11:06:27 2018-12-04 11:11:25 DM57VS > DM49JF 189.7 miles 303° 2018-12-04 11:11:25
W7MOT-8 15 2018-12-04 09:28:09 2018-12-04 10:21:46 DM56CE > DM45EF 120.1 miles 237° 2018-12-04 10:21:46
W7MOT-10 1 2018-12-04 09:41:04 2018-12-04 09:41:04 DM45IA > DM43HV 77.0 miles 184° 2018-12-04 09:41:04
KF6RAL-4 7 2018-12-04 09:57:56 2018-12-04 10:09:51 DM45PL > DM37NO 189.4 miles 321° 2018-12-04 09:57:56
RBERRY 4 2018-12-04 10:58:31 2018-12-04 11:06:10 DM57RI > DM58VH 69.6 miles 17° 2018-12-04 10:58:31
FLATTP 2 2018-12-04 11:21:30 2018-12-04 11:25:29 DM68BB > DM68BM 32.0 miles 2° 2018-12-04 11:21:30
METHOD 7 2018-12-04 11:56:46 2018-12-04 12:08:36 DM68WT > DM68XK 26.0 miles 169° 2018-12-04 12:08:36
PARRTT 7 2018-12-04 10:17:48 2018-12-04 11:01:30 DM56AB > DM57WI 136.1 miles 49° 2018-12-04 10:17:48
BWMTN 13 2018-12-04 09:26:09 2018-12-04 09:56:57 DM45PK > DM35VE 86.5 miles 259° 2018-12-04 09:56:57
SHEEP 13 2018-12-04 11:12:25 2018-12-04 11:30:27 DM57VS > DM68FL 56.6 miles 35° 2018-12-04 11:12:25
N0GIO-15 1 2018-12-04 10:57:31 2018-12-04 10:57:31 DM57QH > DM67HA 69.1 miles 108° 2018-12-04 10:57:31
KAYNTA 16 2018-12-04 10:18:47 2018-12-04 10:47:35 DM57MA > DM46VR 74.8 miles 255° 2018-12-04 10:47:35
N4EZZ-1 2 2018-12-04 11:58:05 2018-12-04 11:58:59 DM68WP > DM78AM 10.8 miles 138° 2018-12-04 11:58:05
KE7JVX-10 4 2018-12-04 09:32:07 2018-12-04 10:13:50 DM44ES > DM47NA 163.3 miles 15° 2018-12-04 09:32:07

Only position packets which were originated by the station are shown here. The range statistics show some extra long hops, because some digipeaters do not correctly add themselves to the digipeater path. Please check the raw packets.
About this site
This page shows real-time information collected from the Automatic Position Reporting System Internet network (APRS-IS). APRS is used by amateur (ham) radio operators to transmit real-time position information, weather data, telemetry and messages over the radio. A vehicle equipped with a GPS receiver, a VHF transmitter or HF transceiver and a small computer device called a tracker transmits it's location, speed and course in a small data packet, which is then received by a nearby iGate receiving site which forwards the packet on the Internet. Systems connected to the Internet can send information on the APRS-IS without a radio transmitter, or collect and display information transmitted anywhere in the world.
FAQ · Blog · Discussion group · Linking to aprs.fi · AIS sites · Service status · Database statistics · Advertising on aprs.fi · Technical details · API · Change log · Planned changes · Credits and thanks · Terms Of Service · iPhone/iPad APRS